sensor_id;sensor_type;location;lat;lon;timestamp;temperature;humidity
18281;DHT22;9266;51.132;17.062;2023-02-18T00:00:35;8.80;1.00
18281;DHT22;9266;51.132;17.062;2023-02-18T00:03:02;8.90;1.00
18281;DHT22;9266;51.132;17.062;2023-02-18T00:05:29;8.90;99.90
18281;DHT22;9266;51.132;17.062;2023-02-18T00:07:56;9.00;1.00
18281;DHT22;9266;51.132;17.062;2023-02-18T00:10:25;9.00;1.00
18281;DHT22;9266;51.132;17.062;2023-02-18T00:12:52;9.00;1.00
18281;DHT22;9266;51.132;17.062;2023-02-18T00:15:19;9.10;1.00
18281;DHT22;9266;51.132;17.062;2023-02-18T00:17:46;9.00;1.00
18281;DHT22;9266;51.132;17.062;2023-02-18T00:20:13;8.90;1.00
18281;DHT22;9266;51.132;17.062;2023-02-18T00:22:40;8.90;1.00
18281;DHT22;9266;51.132;17.062;2023-02-18T00:25:07;8.90;99.90
18281;DHT22;9266;51.132;17.062;2023-02-18T00:27:36;9.00;99.90
18281;DHT22;9266;51.132;17.062;2023-02-18T00:30:07;8.90;99.90
18281;DHT22;9266;51.132;17.062;2023-02-18T00:32:34;8.80;99.90
18281;DHT22;9266;51.132;17.062;2023-02-18T00:35:01;8.90;99.90
18281;DHT22;9266;51.132;17.062;2023-02-18T00:37:30;8.80;99.90
18281;DHT22;9266;51.132;17.062;2023-02-18T00:39:57;8.70;99.90
18281;DHT22;9266;51.132;17.062;2023-02-18T00:42:24;8.70;99.90
18281;DHT22;9266;51.132;17.062;2023-02-18T00:44:53;8.60;99.90
18281;DHT22;9266;51.132;17.062;2023-02-18T00:47:20;8.60;99.90
18281;DHT22;9266;51.132;17.062;2023-02-18T00:49:47;8.50;99.90
18281;DHT22;9266;51.132;17.062;2023-02-18T00:52:14;8.60;99.90
18281;DHT22;9266;51.132;17.062;2023-02-18T00:54:41;8.40;99.90
18281;DHT22;9266;51.132;17.062;2023-02-18T00:57:08;8.50;99.90
18281;DHT22;9266;51.132;17.062;2023-02-18T00:59:37;7.50;99.90
18281;DHT22;9266;51.132;17.062;2023-02-18T01:02:06;8.40;99.90
18281;DHT22;9266;51.132;17.062;2023-02-18T01:04:33;7.80;99.90
18281;DHT22;9266;51.132;17.062;2023-02-18T01:07:00;8.40;99.90
18281;DHT22;9266;51.132;17.062;2023-02-18T01:09:27;8.20;99.90
18281;DHT22;9266;51.132;17.062;2023-02-18T01:11:57;8.30;99.90
18281;DHT22;9266;51.132;17.062;2023-02-18T01:14:24;8.30;99.90
18281;DHT22;9266;51.132;17.062;2023-02-18T01:16:51;8.20;99.90
18281;DHT22;9266;51.132;17.062;2023-02-18T01:19:21;8.30;99.90
18281;DHT22;9266;51.132;17.062;2023-02-18T01:21:48;8.20;99.90
18281;DHT22;9266;51.132;17.062;2023-02-18T01:24:15;8.20;99.90
18281;DHT22;9266;51.132;17.062;2023-02-18T01:26:43;8.10;99.90
18281;DHT22;9266;51.132;17.062;2023-02-18T01:29:10;8.00;99.90
18281;DHT22;9266;51.132;17.062;2023-02-18T01:31:37;8.00;99.90
18281;DHT22;9266;51.132;17.062;2023-02-18T01:34:04;8.00;99.90
18281;DHT22;9266;51.132;17.062;2023-02-18T01:36:33;8.00;99.90
18281;DHT22;9266;51.132;17.062;2023-02-18T01:39:00;7.90;1.00
18281;DHT22;9266;51.132;17.062;2023-02-18T01:41:27;7.90;99.90
18281;DHT22;9266;51.132;17.062;2023-02-18T01:44:14;8.00;1.00
18281;DHT22;9266;51.132;17.062;2023-02-18T01:46:42;8.00;99.90
18281;DHT22;9266;51.132;17.062;2023-02-18T01:49:11;7.50;99.90
18281;DHT22;9266;51.132;17.062;2023-02-18T01:51:45;8.00;1.00
18281;DHT22;9266;51.132;17.062;2023-02-18T01:54:17;7.70;1.00
18281;DHT22;9266;51.132;17.062;2023-02-18T01:56:50;7.80;1.00
18281;DHT22;9266;51.132;17.062;2023-02-18T01:59:22;7.90;1.00
18281;DHT22;9266;51.132;17.062;2023-02-18T02:01:51;7.80;99.90
18281;DHT22;9266;51.132;17.062;2023-02-18T02:04:18;7.80;1.00
18281;DHT22;9266;51.132;17.062;2023-02-18T02:06:47;7.80;1.00
18281;DHT22;9266;51.132;17.062;2023-02-18T02:09:18;7.70;99.90
18281;DHT22;9266;51.132;17.062;2023-02-18T02:12:01;7.60;1.00
18281;DHT22;9266;51.132;17.062;2023-02-18T02:14:52;7.80;1.00
18281;DHT22;9266;51.132;17.062;2023-02-18T02:17:30;7.90;1.00
18281;DHT22;9266;51.132;17.062;2023-02-18T02:20:16;5.80;1.00
18281;DHT22;9266;51.132;17.062;2023-02-18T02:23:26;7.70;1.00
18281;DHT22;9266;51.132;17.062;2023-02-18T02:26:26;7.60;1.00
18281;DHT22;9266;51.132;17.062;2023-02-18T02:34:52;7.70;1.00
18281;DHT22;9266;51.132;17.062;2023-02-18T02:37:26;7.60;1.00
18281;DHT22;9266;51.132;17.062;2023-02-18T02:40:09;7.50;1.00
18281;DHT22;9266;51.132;17.062;2023-02-18T02:42:49;7.40;1.00
18281;DHT22;9266;51.132;17.062;2023-02-18T02:45:32;7.20;1.00
18281;DHT22;9266;51.132;17.062;2023-02-18T02:48:11;7.10;1.00
18281;DHT22;9266;51.132;17.062;2023-02-18T02:50:48;6.50;1.00
18281;DHT22;9266;51.132;17.062;2023-02-18T02:53:22;7.00;1.00
18281;DHT22;9266;51.132;17.062;2023-02-18T02:55:50;7.00;1.00
18281;DHT22;9266;51.132;17.062;2023-02-18T02:58:18;7.00;1.00
18281;DHT22;9266;51.132;17.062;2023-02-18T03:01:16;7.00;1.00
18281;DHT22;9266;51.132;17.062;2023-02-18T03:07:05;7.20;1.00
18281;DHT22;9266;51.132;17.062;2023-02-18T03:09:43;7.10;1.00
18281;DHT22;9266;51.132;17.062;2023-02-18T03:12:21;7.10;1.00
18281;DHT22;9266;51.132;17.062;2023-02-18T03:14:57;7.00;1.00
18281;DHT22;9266;51.132;17.062;2023-02-18T03:17:30;7.00;1.00
18281;DHT22;9266;51.132;17.062;2023-02-18T03:20:04;7.00;1.00
18281;DHT22;9266;51.132;17.062;2023-02-18T03:22:38;7.00;1.00
18281;DHT22;9266;51.132;17.062;2023-02-18T03:25:15;7.20;1.00
18281;DHT22;9266;51.132;17.062;2023-02-18T03:27:51;8.20;1.00
18281;DHT22;9266;51.132;17.062;2023-02-18T03:30:23;7.00;1.00
18281;DHT22;9266;51.132;17.062;2023-02-18T03:32:54;7.00;1.00
18281;DHT22;9266;51.132;17.062;2023-02-18T03:35:24;7.80;1.00
18281;DHT22;9266;51.132;17.062;2023-02-18T03:37:59;6.80;1.00
18281;DHT22;9266;51.132;17.062;2023-02-18T03:40:28;6.70;1.00
18281;DHT22;9266;51.132;17.062;2023-02-18T03:42:57;6.80;1.00
18281;DHT22;9266;51.132;17.062;2023-02-18T03:45:37;6.80;1.00
18281;DHT22;9266;51.132;17.062;2023-02-18T03:48:05;6.80;1.00
18281;DHT22;9266;51.132;17.062;2023-02-18T03:50:34;6.80;1.00
18281;DHT22;9266;51.132;17.062;2023-02-18T03:53:03;6.60;1.00
18281;DHT22;9266;51.132;17.062;2023-02-18T03:55:30;6.60;1.00
18281;DHT22;9266;51.132;17.062;2023-02-18T03:57:59;6.70;1.00
18281;DHT22;9266;51.132;17.062;2023-02-18T04:00:30;6.70;1.00
18281;DHT22;9266;51.132;17.062;2023-02-18T04:02:57;6.70;1.00
18281;DHT22;9266;51.132;17.062;2023-02-18T04:05:25;6.60;1.00
18281;DHT22;9266;51.132;17.062;2023-02-18T04:07:52;6.60;1.00
18281;DHT22;9266;51.132;17.062;2023-02-18T04:10:29;6.70;1.00
18281;DHT22;9266;51.132;17.062;2023-02-18T04:12:59;6.60;1.00
18281;DHT22;9266;51.132;17.062;2023-02-18T04:15:29;5.90;1.00
18281;DHT22;9266;51.132;17.062;2023-02-18T04:18:00;7.20;1.00
18281;DHT22;9266;51.132;17.062;2023-02-18T04:20:27;6.50;1.00
18281;DHT22;9266;51.132;17.062;2023-02-18T04:22:55;6.40;1.00
18281;DHT22;9266;51.132;17.062;2023-02-18T04:25:22;6.50;1.00
18281;DHT22;9266;51.132;17.062;2023-02-18T04:27:52;6.40;1.00
18281;DHT22;9266;51.132;17.062;2023-02-18T04:30:19;6.40;1.00
18281;DHT22;9266;51.132;17.062;2023-02-18T04:32:47;6.30;1.00
18281;DHT22;9266;51.132;17.062;2023-02-18T04:35:14;6.30;1.00
18281;DHT22;9266;51.132;17.062;2023-02-18T04:37:45;6.20;1.00
18281;DHT22;9266;51.132;17.062;2023-02-18T04:40:13;6.10;1.00
18281;DHT22;9266;51.132;17.062;2023-02-18T04:42:42;6.10;1.00
18281;DHT22;9266;51.132;17.062;2023-02-18T04:45:13;6.30;1.00
18281;DHT22;9266;51.132;17.062;2023-02-18T04:47:40;6.20;1.00
18281;DHT22;9266;51.132;17.062;2023-02-18T04:50:08;6.30;1.00
18281;DHT22;9266;51.132;17.062;2023-02-18T04:52:35;7.30;1.00
18281;DHT22;9266;51.132;17.062;2023-02-18T04:55:03;6.40;99.90
18281;DHT22;9266;51.132;17.062;2023-02-18T04:57:30;6.50;99.90
18281;DHT22;9266;51.132;17.062;2023-02-18T04:59:57;6.60;1.00
18281;DHT22;9266;51.132;17.062;2023-02-18T05:02:27;6.60;34.80
18281;DHT22;9266;51.132;17.062;2023-02-18T05:04:54;6.50;99.90
18281;DHT22;9266;51.132;17.062;2023-02-18T05:07:22;6.50;1.00
18281;DHT22;9266;51.132;17.062;2023-02-18T05:09:55;6.40;99.90
18281;DHT22;9266;51.132;17.062;2023-02-18T05:12:22;6.30;62.40
18281;DHT22;9266;51.132;17.062;2023-02-18T05:14:50;6.40;1.00
18281;DHT22;9266;51.132;17.062;2023-02-18T05:17:17;6.40;1.00
18281;DHT22;9266;51.132;17.062;2023-02-18T05:19:50;6.30;1.00
18281;DHT22;9266;51.132;17.062;2023-02-18T05:22:18;6.40;1.00
18281;DHT22;9266;51.132;17.062;2023-02-18T05:24:46;6.50;99.90
18281;DHT22;9266;51.132;17.062;2023-02-18T05:27:13;6.50;94.50
18281;DHT22;9266;51.132;17.062;2023-02-18T05:29:40;6.60;73.80
18281;DHT22;9266;51.132;17.062;2023-02-18T05:32:07;4.60;1.00
18281;DHT22;9266;51.132;17.062;2023-02-18T05:34:37;6.60;1.00
18281;DHT22;9266;51.132;17.062;2023-02-18T05:37:06;6.50;99.90
18281;DHT22;9266;51.132;17.062;2023-02-18T05:39:33;6.60;1.00
18281;DHT22;9266;51.132;17.062;2023-02-18T05:42:00;6.70;99.90
18281;DHT22;9266;51.132;17.062;2023-02-18T05:44:29;6.70;1.00
18281;DHT22;9266;51.132;17.062;2023-02-18T05:46:59;6.90;99.90
18281;DHT22;9266;51.132;17.062;2023-02-18T05:49:36;6.90;99.90
18281;DHT22;9266;51.132;17.062;2023-02-18T05:52:13;6.90;99.90
18281;DHT22;9266;51.132;17.062;2023-02-18T05:54:41;7.10;1.00
18281;DHT22;9266;51.132;17.062;2023-02-18T05:57:09;7.10;99.90
18281;DHT22;9266;51.132;17.062;2023-02-18T05:59:37;7.10;99.90
18281;DHT22;9266;51.132;17.062;2023-02-18T06:02:04;7.10;1.00
18281;DHT22;9266;51.132;17.062;2023-02-18T06:04:31;7.10;1.00
18281;DHT22;9266;51.132;17.062;2023-02-18T06:06:58;7.10;1.00
18281;DHT22;9266;51.132;17.062;2023-02-18T06:09:30;7.10;1.00
18281;DHT22;9266;51.132;17.062;2023-02-18T06:11:57;6.20;1.00
18281;DHT22;9266;51.132;17.062;2023-02-18T06:14:24;7.30;1.00
18281;DHT22;9266;51.132;17.062;2023-02-18T06:16:55;7.40;1.00
18281;DHT22;9266;51.132;17.062;2023-02-18T06:19:25;7.50;1.00
18281;DHT22;9266;51.132;17.062;2023-02-18T06:21:57;7.50;1.00
18281;DHT22;9266;51.132;17.062;2023-02-18T06:24:27;9.80;1.00
18281;DHT22;9266;51.132;17.062;2023-02-18T06:26:59;7.50;1.00
18281;DHT22;9266;51.132;17.062;2023-02-18T06:29:32;7.40;1.00
18281;DHT22;9266;51.132;17.062;2023-02-18T06:32:01;7.50;1.00
18281;DHT22;9266;51.132;17.062;2023-02-18T06:34:36;7.00;1.00
18281;DHT22;9266;51.132;17.062;2023-02-18T06:37:09;6.20;1.00
18281;DHT22;9266;51.132;17.062;2023-02-18T06:39:43;7.60;1.00
18281;DHT22;9266;51.132;17.062;2023-02-18T06:42:12;7.60;1.00
18281;DHT22;9266;51.132;17.062;2023-02-18T06:44:40;7.60;1.00
18281;DHT22;9266;51.132;17.062;2023-02-18T06:47:10;7.00;1.00
18281;DHT22;9266;51.132;17.062;2023-02-18T06:49:43;7.60;1.00
18281;DHT22;9266;51.132;17.062;2023-02-18T06:52:15;7.70;1.00
18281;DHT22;9266;51.132;17.062;2023-02-18T06:54:48;7.60;1.00
18281;DHT22;9266;51.132;17.062;2023-02-18T06:57:21;7.60;1.00
18281;DHT22;9266;51.132;17.062;2023-02-18T06:59:54;7.60;1.00
18281;DHT22;9266;51.132;17.062;2023-02-18T07:02:34;7.60;1.00
18281;DHT22;9266;51.132;17.062;2023-02-18T07:05:03;7.70;1.00
18281;DHT22;9266;51.132;17.062;2023-02-18T07:07:33;7.60;1.00
18281;DHT22;9266;51.132;17.062;2023-02-18T07:10:12;7.60;1.00
18281;DHT22;9266;51.132;17.062;2023-02-18T07:12:39;7.60;1.00
18281;DHT22;9266;51.132;17.062;2023-02-18T07:15:45;7.60;1.00
18281;DHT22;9266;51.132;17.062;2023-02-18T07:18:02;7.50;1.00
18281;DHT22;9266;51.132;17.062;2023-02-18T07:20:32;7.60;1.00
18281;DHT22;9266;51.132;17.062;2023-02-18T07:23:05;7.60;1.00
18281;DHT22;9266;51.132;17.062;2023-02-18T07:25:34;7.60;1.00
18281;DHT22;9266;51.132;17.062;2023-02-18T07:28:07;7.60;1.00
18281;DHT22;9266;51.132;17.062;2023-02-18T07:30:36;7.40;1.00
18281;DHT22;9266;51.132;17.062;2023-02-18T07:33:03;8.20;1.00
18281;DHT22;9266;51.132;17.062;2023-02-18T07:36:00;7.80;1.00
18281;DHT22;9266;51.132;17.062;2023-02-18T07:38:31;7.00;1.00
18281;DHT22;9266;51.132;17.062;2023-02-18T07:41:05;8.00;1.00
18281;DHT22;9266;51.132;17.062;2023-02-18T07:43:47;8.10;1.00
18281;DHT22;9266;51.132;17.062;2023-02-18T07:46:20;8.20;1.00
18281;DHT22;9266;51.132;17.062;2023-02-18T07:48:52;8.10;1.00
18281;DHT22;9266;51.132;17.062;2023-02-18T07:51:29;8.20;1.00
18281;DHT22;9266;51.132;17.062;2023-02-18T07:53:58;8.50;1.00
18281;DHT22;9266;51.132;17.062;2023-02-18T07:56:32;8.20;1.00
18281;DHT22;9266;51.132;17.062;2023-02-18T07:59:03;8.40;1.00
18281;DHT22;9266;51.132;17.062;2023-02-18T08:01:30;9.80;1.00
18281;DHT22;9266;51.132;17.062;2023-02-18T08:03:57;7.10;1.00
18281;DHT22;9266;51.132;17.062;2023-02-18T08:06:28;8.60;1.00
18281;DHT22;9266;51.132;17.062;2023-02-18T08:08:56;8.60;1.00
18281;DHT22;9266;51.132;17.062;2023-02-18T08:11:39;7.00;1.00
18281;DHT22;9266;51.132;17.062;2023-02-18T08:14:06;8.60;1.00
18281;DHT22;9266;51.132;17.062;2023-02-18T08:16:34;8.70;1.00
18281;DHT22;9266;51.132;17.062;2023-02-18T08:19:05;8.50;1.00
18281;DHT22;9266;51.132;17.062;2023-02-18T08:21:37;8.50;1.00
18281;DHT22;9266;51.132;17.062;2023-02-18T08:24:14;8.60;1.00
18281;DHT22;9266;51.132;17.062;2023-02-18T08:27:01;7.60;1.00
18281;DHT22;9266;51.132;17.062;2023-02-18T08:29:33;7.20;1.00
18281;DHT22;9266;51.132;17.062;2023-02-18T08:32:02;7.60;1.00
18281;DHT22;9266;51.132;17.062;2023-02-18T08:34:40;8.60;1.00
18281;DHT22;9266;51.132;17.062;2023-02-18T08:37:15;8.60;1.00
18281;DHT22;9266;51.132;17.062;2023-02-18T08:40:08;8.80;1.00
18281;DHT22;9266;51.132;17.062;2023-02-18T08:46:16;9.70;1.00
18281;DHT22;9266;51.132;17.062;2023-02-18T08:48:58;9.00;1.00
18281;DHT22;9266;51.132;17.062;2023-02-18T08:51:32;9.10;1.00
18281;DHT22;9266;51.132;17.062;2023-02-18T08:54:02;7.30;1.00
18281;DHT22;9266;51.132;17.062;2023-02-18T08:56:34;9.00;1.00
18281;DHT22;9266;51.132;17.062;2023-02-18T08:59:18;8.90;1.00
18281;DHT22;9266;51.132;17.062;2023-02-18T09:01:50;8.80;1.00
18281;DHT22;9266;51.132;17.062;2023-02-18T09:04:40;7.70;1.00
18281;DHT22;9266;51.132;17.062;2023-02-18T09:07:11;8.70;1.00
18281;DHT22;9266;51.132;17.062;2023-02-18T09:09:45;10.30;1.00
18281;DHT22;9266;51.132;17.062;2023-02-18T09:12:16;8.70;1.00
18281;DHT22;9266;51.132;17.062;2023-02-18T09:15:09;8.70;1.00
18281;DHT22;9266;51.132;17.062;2023-02-18T09:17:44;8.70;1.00
18281;DHT22;9266;51.132;17.062;2023-02-18T09:20:18;8.80;1.00
18281;DHT22;9266;51.132;17.062;2023-02-18T09:22:50;8.70;99.90
18281;DHT22;9266;51.132;17.062;2023-02-18T09:25:23;7.90;1.00
18281;DHT22;9266;51.132;17.062;2023-02-18T09:28:04;8.70;1.00
18281;DHT22;9266;51.132;17.062;2023-02-18T09:30:42;8.60;10.80
18281;DHT22;9266;51.132;17.062;2023-02-18T09:33:09;8.70;1.00
18281;DHT22;9266;51.132;17.062;2023-02-18T09:35:39;8.60;1.00
18281;DHT22;9266;51.132;17.062;2023-02-18T09:38:09;8.20;1.00
18281;DHT22;9266;51.132;17.062;2023-02-18T09:40:41;8.40;1.00
18281;DHT22;9266;51.132;17.062;2023-02-18T09:43:22;8.30;1.00
18281;DHT22;9266;51.132;17.062;2023-02-18T09:45:52;7.00;1.00
18281;DHT22;9266;51.132;17.062;2023-02-18T09:48:29;8.40;1.00
18281;DHT22;9266;51.132;17.062;2023-02-18T09:51:05;8.40;1.00
18281;DHT22;9266;51.132;17.062;2023-02-18T09:53:35;8.40;1.00
18281;DHT22;9266;51.132;17.062;2023-02-18T09:56:03;8.40;1.00
18281;DHT22;9266;51.132;17.062;2023-02-18T10:01:17;8.50;1.00
18281;DHT22;9266;51.132;17.062;2023-02-18T10:03:46;8.30;1.00
18281;DHT22;9266;51.132;17.062;2023-02-18T10:06:17;8.30;1.00
18281;DHT22;9266;51.132;17.062;2023-02-18T10:08:47;8.30;1.00
18281;DHT22;9266;51.132;17.062;2023-02-18T10:11:22;8.30;1.00
18281;DHT22;9266;51.132;17.062;2023-02-18T10:13:52;8.20;1.00
18281;DHT22;9266;51.132;17.062;2023-02-18T10:16:23;8.30;1.00
18281;DHT22;9266;51.132;17.062;2023-02-18T10:18:53;8.40;1.00
18281;DHT22;9266;51.132;17.062;2023-02-18T10:21:24;8.40;1.00
18281;DHT22;9266;51.132;17.062;2023-02-18T10:23:57;8.40;1.00
18281;DHT22;9266;51.132;17.062;2023-02-18T10:26:26;8.60;1.00
18281;DHT22;9266;51.132;17.062;2023-02-18T10:28:56;8.50;1.00
18281;DHT22;9266;51.132;17.062;2023-02-18T10:31:29;9.60;1.00
18281;DHT22;9266;51.132;17.062;2023-02-18T10:34:02;8.30;1.00
18281;DHT22;9266;51.132;17.062;2023-02-18T10:36:35;6.80;1.00
18281;DHT22;9266;51.132;17.062;2023-02-18T10:39:24;8.00;1.00
18281;DHT22;9266;51.132;17.062;2023-02-18T10:42:04;7.90;1.00
18281;DHT22;9266;51.132;17.062;2023-02-18T10:44:42;7.80;57.10
18281;DHT22;9266;51.132;17.062;2023-02-18T10:47:22;8.00;99.90
18281;DHT22;9266;51.132;17.062;2023-02-18T10:49:57;8.00;99.90
18281;DHT22;9266;51.132;17.062;2023-02-18T10:52:28;7.90;99.90
18281;DHT22;9266;51.132;17.062;2023-02-18T10:55:01;7.90;99.90
18281;DHT22;9266;51.132;17.062;2023-02-18T10:57:30;7.80;99.90
18281;DHT22;9266;51.132;17.062;2023-02-18T11:00:00;7.70;1.00
18281;DHT22;9266;51.132;17.062;2023-02-18T11:02:37;7.70;99.90
18281;DHT22;9266;51.132;17.062;2023-02-18T11:05:17;7.80;1.00
18281;DHT22;9266;51.132;17.062;2023-02-18T11:07:47;7.70;1.00
18281;DHT22;9266;51.132;17.062;2023-02-18T11:10:18;7.80;99.90
18281;DHT22;9266;51.132;17.062;2023-02-18T11:12:48;7.90;1.00
18281;DHT22;9266;51.132;17.062;2023-02-18T11:15:18;7.90;1.00
18281;DHT22;9266;51.132;17.062;2023-02-18T11:17:49;7.90;1.00
18281;DHT22;9266;51.132;17.062;2023-02-18T11:20:28;7.90;1.00
18281;DHT22;9266;51.132;17.062;2023-02-18T11:23:14;8.10;1.00
18281;DHT22;9266;51.132;17.062;2023-02-18T11:25:53;8.30;1.00
18281;DHT22;9266;51.132;17.062;2023-02-18T11:28:39;8.40;1.00
18281;DHT22;9266;51.132;17.062;2023-02-18T11:31:09;8.50;1.00
18281;DHT22;9266;51.132;17.062;2023-02-18T11:33:40;8.50;1.00
18281;DHT22;9266;51.132;17.062;2023-02-18T11:36:18;8.40;1.00
18281;DHT22;9266;51.132;17.062;2023-02-18T11:38:48;8.40;1.00
18281;DHT22;9266;51.132;17.062;2023-02-18T11:41:18;8.30;1.00
18281;DHT22;9266;51.132;17.062;2023-02-18T11:43:48;8.30;99.90
18281;DHT22;9266;51.132;17.062;2023-02-18T11:46:18;8.40;99.90
18281;DHT22;9266;51.132;17.062;2023-02-18T11:48:47;8.40;99.90
18281;DHT22;9266;51.132;17.062;2023-02-18T11:51:17;8.30;99.90
18281;DHT22;9266;51.132;17.062;2023-02-18T11:53:55;8.30;1.00
18281;DHT22;9266;51.132;17.062;2023-02-18T11:56:25;8.20;1.00
18281;DHT22;9266;51.132;17.062;2023-02-18T11:58:53;8.20;1.00
18281;DHT22;9266;51.132;17.062;2023-02-18T12:01:36;8.20;1.00
18281;DHT22;9266;51.132;17.062;2023-02-18T12:04:11;8.30;13.60
18281;DHT22;9266;51.132;17.062;2023-02-18T12:06:47;8.20;11.40
18281;DHT22;9266;51.132;17.062;2023-02-18T12:09:22;8.10;76.20
18281;DHT22;9266;51.132;17.062;2023-02-18T12:11:54;8.10;1.00
18281;DHT22;9266;51.132;17.062;2023-02-18T12:14:22;8.00;1.00
18281;DHT22;9266;51.132;17.062;2023-02-18T12:17:15;8.00;1.00
18281;DHT22;9266;51.132;17.062;2023-02-18T12:20:16;8.00;1.00
18281;DHT22;9266;51.132;17.062;2023-02-18T12:22:51;8.00;99.90
18281;DHT22;9266;51.132;17.062;2023-02-18T12:25:28;7.90;99.90
18281;DHT22;9266;51.132;17.062;2023-02-18T12:28:11;7.80;99.90
18281;DHT22;9266;51.132;17.062;2023-02-18T12:30:57;7.70;99.90
18281;DHT22;9266;51.132;17.062;2023-02-18T12:33:34;7.80;99.90
18281;DHT22;9266;51.132;17.062;2023-02-18T12:36:15;7.60;1.00
18281;DHT22;9266;51.132;17.062;2023-02-18T12:39:05;7.50;1.00
18281;DHT22;9266;51.132;17.062;2023-02-18T12:41:52;7.40;1.00
18281;DHT22;9266;51.132;17.062;2023-02-18T12:44:33;7.40;36.40
18281;DHT22;9266;51.132;17.062;2023-02-18T12:47:23;7.20;99.90
18281;DHT22;9266;51.132;17.062;2023-02-18T12:50:28;7.20;1.00
18281;DHT22;9266;51.132;17.062;2023-02-18T12:53:06;7.20;1.00
18281;DHT22;9266;51.132;17.062;2023-02-18T12:55:48;7.20;1.00
18281;DHT22;9266;51.132;17.062;2023-02-18T12:58:27;7.20;1.00
18281;DHT22;9266;51.132;17.062;2023-02-18T13:04:26;7.20;90.60
18281;DHT22;9266;51.132;17.062;2023-02-18T13:10:09;7.10;99.90
18281;DHT22;9266;51.132;17.062;2023-02-18T13:12:49;7.00;99.90
18281;DHT22;9266;51.132;17.062;2023-02-18T13:15:24;7.00;99.90
18281;DHT22;9266;51.132;17.062;2023-02-18T13:17:56;7.10;99.90
18281;DHT22;9266;51.132;17.062;2023-02-18T13:20:34;7.10;99.90
18281;DHT22;9266;51.132;17.062;2023-02-18T13:23:03;7.10;99.90
18281;DHT22;9266;51.132;17.062;2023-02-18T13:25:36;7.10;99.90
18281;DHT22;9266;51.132;17.062;2023-02-18T13:28:14;7.00;99.90
18281;DHT22;9266;51.132;17.062;2023-02-18T13:30:47;7.00;99.90
18281;DHT22;9266;51.132;17.062;2023-02-18T13:33:20;6.90;99.90
18281;DHT22;9266;51.132;17.062;2023-02-18T13:35:55;6.90;99.90
18281;DHT22;9266;51.132;17.062;2023-02-18T13:38:49;7.00;99.90
18281;DHT22;9266;51.132;17.062;2023-02-18T13:41:20;7.10;99.90
18281;DHT22;9266;51.132;17.062;2023-02-18T13:43:47;7.00;99.90
18281;DHT22;9266;51.132;17.062;2023-02-18T13:46:16;7.20;99.90
18281;DHT22;9266;51.132;17.062;2023-02-18T13:48:46;7.30;99.90
18281;DHT22;9266;51.132;17.062;2023-02-18T13:51:16;7.20;99.90
18281;DHT22;9266;51.132;17.062;2023-02-18T13:53:49;7.10;99.90
18281;DHT22;9266;51.132;17.062;2023-02-18T13:56:26;7.10;99.90
18281;DHT22;9266;51.132;17.062;2023-02-18T13:58:57;7.10;99.90
18281;DHT22;9266;51.132;17.062;2023-02-18T14:01:39;7.00;99.90
18281;DHT22;9266;51.132;17.062;2023-02-18T14:04:35;7.00;99.90
18281;DHT22;9266;51.132;17.062;2023-02-18T14:07:26;7.00;99.90
18281;DHT22;9266;51.132;17.062;2023-02-18T14:09:55;7.00;99.90
18281;DHT22;9266;51.132;17.062;2023-02-18T14:12:34;7.00;99.90
18281;DHT22;9266;51.132;17.062;2023-02-18T14:18:55;7.10;99.90
18281;DHT22;9266;51.132;17.062;2023-02-18T14:21:37;7.10;99.90
18281;DHT22;9266;51.132;17.062;2023-02-18T14:24:06;7.10;99.90
18281;DHT22;9266;51.132;17.062;2023-02-18T14:26:38;7.10;99.90
18281;DHT22;9266;51.132;17.062;2023-02-18T14:29:12;7.20;99.90
18281;DHT22;9266;51.132;17.062;2023-02-18T14:31:55;7.20;99.90
18281;DHT22;9266;51.132;17.062;2023-02-18T14:38:01;7.20;99.90
18281;DHT22;9266;51.132;17.062;2023-02-18T14:40:48;7.30;99.90
18281;DHT22;9266;51.132;17.062;2023-02-18T14:43:26;7.40;99.90
18281;DHT22;9266;51.132;17.062;2023-02-18T14:46:15;7.30;99.90
18281;DHT22;9266;51.132;17.062;2023-02-18T14:49:01;7.40;99.90
18281;DHT22;9266;51.132;17.062;2023-02-18T14:51:33;7.50;99.90
18281;DHT22;9266;51.132;17.062;2023-02-18T14:54:05;7.50;99.90
18281;DHT22;9266;51.132;17.062;2023-02-18T14:56:41;7.60;99.90
18281;DHT22;9266;51.132;17.062;2023-02-18T14:59:12;7.60;99.90
18281;DHT22;9266;51.132;17.062;2023-02-18T15:01:41;7.70;99.90
18281;DHT22;9266;51.132;17.062;2023-02-18T15:04:13;7.80;99.90
18281;DHT22;9266;51.132;17.062;2023-02-18T15:06:40;7.90;99.90
18281;DHT22;9266;51.132;17.062;2023-02-18T15:09:13;8.00;99.90
18281;DHT22;9266;51.132;17.062;2023-02-18T15:11:44;8.10;99.90
18281;DHT22;9266;51.132;17.062;2023-02-18T15:14:16;8.20;99.90
18281;DHT22;9266;51.132;17.062;2023-02-18T15:16:46;8.20;99.90
18281;DHT22;9266;51.132;17.062;2023-02-18T15:19:16;8.20;99.90
18281;DHT22;9266;51.132;17.062;2023-02-18T15:21:46;8.30;99.90
18281;DHT22;9266;51.132;17.062;2023-02-18T15:24:22;8.30;99.90
18281;DHT22;9266;51.132;17.062;2023-02-18T15:26:50;8.50;99.90
18281;DHT22;9266;51.132;17.062;2023-02-18T15:29:20;8.70;99.90
18281;DHT22;9266;51.132;17.062;2023-02-18T15:31:49;8.90;99.90
18281;DHT22;9266;51.132;17.062;2023-02-18T15:34:41;9.00;99.90
18281;DHT22;9266;51.132;17.062;2023-02-18T15:37:11;9.30;99.90
18281;DHT22;9266;51.132;17.062;2023-02-18T15:39:40;9.40;99.90
18281;DHT22;9266;51.132;17.062;2023-02-18T15:42:12;9.50;99.90
18281;DHT22;9266;51.132;17.062;2023-02-18T15:44:46;9.70;99.90
18281;DHT22;9266;51.132;17.062;2023-02-18T15:47:16;9.80;99.90
18281;DHT22;9266;51.132;17.062;2023-02-18T15:49:45;9.80;99.90
18281;DHT22;9266;51.132;17.062;2023-02-18T15:52:14;9.80;99.90
18281;DHT22;9266;51.132;17.062;2023-02-18T15:54:41;9.90;99.90
18281;DHT22;9266;51.132;17.062;2023-02-18T15:57:12;9.90;99.90
18281;DHT22;9266;51.132;17.062;2023-02-18T15:59:45;9.90;99.90
18281;DHT22;9266;51.132;17.062;2023-02-18T16:02:17;9.90;99.90
18281;DHT22;9266;51.132;17.062;2023-02-18T16:04:54;9.80;99.90
18281;DHT22;9266;51.132;17.062;2023-02-18T16:07:24;9.80;99.90
18281;DHT22;9266;51.132;17.062;2023-02-18T16:10:07;9.80;99.90
18281;DHT22;9266;51.132;17.062;2023-02-18T16:12:36;9.70;99.90
18281;DHT22;9266;51.132;17.062;2023-02-18T16:15:05;9.70;99.90
18281;DHT22;9266;51.132;17.062;2023-02-18T16:17:34;9.60;99.90
18281;DHT22;9266;51.132;17.062;2023-02-18T16:20:14;9.60;99.90
18281;DHT22;9266;51.132;17.062;2023-02-18T16:22:44;9.60;99.90
18281;DHT22;9266;51.132;17.062;2023-02-18T16:25:16;9.70;99.90
18281;DHT22;9266;51.132;17.062;2023-02-18T16:27:51;9.60;99.90
18281;DHT22;9266;51.132;17.062;2023-02-18T16:30:20;9.70;99.90
18281;DHT22;9266;51.132;17.062;2023-02-18T16:32:49;9.70;99.90
18281;DHT22;9266;51.132;17.062;2023-02-18T16:35:17;9.70;99.90
18281;DHT22;9266;51.132;17.062;2023-02-18T16:37:45;9.70;99.90
18281;DHT22;9266;51.132;17.062;2023-02-18T16:40:23;9.80;99.90
18281;DHT22;9266;51.132;17.062;2023-02-18T16:42:51;9.80;99.90
18281;DHT22;9266;51.132;17.062;2023-02-18T16:45:19;9.90;99.90
18281;DHT22;9266;51.132;17.062;2023-02-18T16:47:49;10.00;99.90
18281;DHT22;9266;51.132;17.062;2023-02-18T16:50:18;10.00;99.90
18281;DHT22;9266;51.132;17.062;2023-02-18T16:52:46;10.00;99.90
18281;DHT22;9266;51.132;17.062;2023-02-18T16:55:17;10.10;99.90
18281;DHT22;9266;51.132;17.062;2023-02-18T16:57:45;10.10;99.90
18281;DHT22;9266;51.132;17.062;2023-02-18T17:00:15;10.10;99.90